createdAt,value
2023-01-11T00:03:09.619Z,18.30
2023-01-11T00:07:18.718Z,23.30
2023-01-11T00:11:27.824Z,23.70
2023-01-11T00:15:36.850Z,15.90
2023-01-11T00:19:45.740Z,30.10
2023-01-11T00:23:54.694Z,36.20
2023-01-11T00:28:12.845Z,25.00
2023-01-11T00:36:34.664Z,30.80
2023-01-11T00:40:43.615Z,29.90
2023-01-11T00:44:52.446Z,31.20
2023-01-11T00:49:01.716Z,30.10
2023-01-11T00:53:22.187Z,29.80
2023-01-11T00:57:29.786Z,28.40
2023-01-11T01:01:34.448Z,25.70
2023-01-11T01:05:40.684Z,30.10
2023-01-11T01:09:49.794Z,23.30
2023-01-11T01:13:58.480Z,25.10
2023-01-11T01:18:07.726Z,25.00
2023-01-11T01:22:16.899Z,22.10
2023-01-11T01:26:33.522Z,15.60
2023-01-11T01:30:41.536Z,23.90
2023-01-11T01:35:01.835Z,26.70
2023-01-11T01:39:09.566Z,17.90
2023-01-11T01:43:26.770Z,23.30
2023-01-11T01:47:35.821Z,23.60
2023-01-11T01:51:58.941Z,22.20
2023-01-11T01:56:07.657Z,21.50
2023-01-11T02:00:27.556Z,24.40
2023-01-11T02:04:12.540Z,25.20
2023-01-11T02:08:21.864Z,23.10
2023-01-11T02:20:20.920Z,22.40
2023-01-11T02:24:33.912Z,20.40
2023-01-11T02:28:42.438Z,23.30
2023-01-11T02:33:01.611Z,25.70
2023-01-11T02:37:27.691Z,24.90
2023-01-11T02:41:43.026Z,25.60
2023-01-11T02:45:52.798Z,25.10
2023-01-11T02:50:07.668Z,23.00
2023-01-11T02:54:19.577Z,20.90
2023-01-11T02:58:28.703Z,24.60
2023-01-11T03:02:36.695Z,22.80
2023-01-11T03:06:56.655Z,21.40
2023-01-11T03:11:05.782Z,25.40
2023-01-11T03:15:22.540Z,21.80
2023-01-11T03:19:41.570Z,21.10
2023-01-11T03:24:02.847Z,26.50
2023-01-11T03:28:07.561Z,26.50
2023-01-11T03:32:12.472Z,20.90
2023-01-11T03:36:37.682Z,23.20
2023-01-11T03:40:57.429Z,22.60
2023-01-11T03:45:06.464Z,24.20
2023-01-11T03:49:21.528Z,22.50
2023-01-11T03:53:37.613Z,27.70
2023-01-11T04:05:26.621Z,26.70
2023-01-11T04:09:09.381Z,25.00
2023-01-11T04:13:28.404Z,24.40
2023-01-11T04:17:37.544Z,23.20
2023-01-11T04:21:55.724Z,24.60
2023-01-11T04:25:54.643Z,24.80
2023-01-11T04:30:03.758Z,23.40
2023-01-11T04:34:16.586Z,26.20
2023-01-11T04:38:31.609Z,27.90
2023-01-11T04:42:39.327Z,24.80
2023-01-11T04:46:47.272Z,24.50
2023-01-11T04:50:56.378Z,29.70
2023-01-11T04:55:05.343Z,27.40
2023-01-11T04:59:14.312Z,26.30
2023-01-11T05:03:23.315Z,28.30
2023-01-11T05:07:32.280Z,30.90
2023-01-11T05:11:51.383Z,27.70
2023-01-11T05:16:00.293Z,23.90
2023-01-11T05:20:08.584Z,27.40
2023-01-11T05:24:16.771Z,32.20
2023-01-11T05:28:36.616Z,41.00
2023-01-11T05:32:45.319Z,40.80
2023-01-11T05:36:53.494Z,38.80
2023-01-11T05:40:53.598Z,35.60
2023-01-11T05:45:02.572Z,37.70
2023-01-11T06:05:01.530Z,46.90
2023-01-11T06:08:45.244Z,40.60
2023-01-11T06:13:00.157Z,50.00
2023-01-11T06:17:09.475Z,51.00
2023-01-11T06:21:18.191Z,34.00
2023-01-11T06:25:27.532Z,36.80
2023-01-11T06:29:47.468Z,53.90
2023-01-11T06:33:56.264Z,37.20
2023-01-11T06:38:05.354Z,44.80
2023-01-11T06:42:12.341Z,42.20
2023-01-11T06:46:21.553Z,34.60
2023-01-11T06:50:36.319Z,28.80
2023-01-11T06:54:36.378Z,27.20
2023-01-11T06:58:38.585Z,23.80
2023-01-11T07:04:24.678Z,22.50
2023-01-11T07:08:44.713Z,17.00
2023-01-11T07:12:50.072Z,21.90
2023-01-11T07:17:07.157Z,22.70
2023-01-11T07:21:24.986Z,18.90
2023-01-11T07:25:32.282Z,17.10
2023-01-11T07:29:24.285Z,15.10
2023-01-11T07:33:16.513Z,14.90
2023-01-11T07:40:11.521Z,14.20
2023-01-11T07:44:27.660Z,15.80
2023-01-11T07:48:57.227Z,17.60
2023-01-11T07:57:36.061Z,27.20
2023-01-11T08:02:04.165Z,27.10
2023-01-11T08:06:17.751Z,29.50
2023-01-11T08:10:27.377Z,24.30
2023-01-11T08:14:39.615Z,23.90
2023-01-11T08:18:41.464Z,17.10
2023-01-11T08:22:38.509Z,16.70
2023-01-11T08:26:35.593Z,18.20
2023-01-11T08:30:34.461Z,15.70
2023-01-11T08:34:30.809Z,15.50
2023-01-11T08:46:19.170Z,15.00
2023-01-11T08:50:16.598Z,13.80
2023-01-11T08:54:01.339Z,12.20
2023-01-11T08:58:10.446Z,14.90
2023-01-11T09:02:00.398Z,13.40
2023-01-11T09:06:17.513Z,13.70
2023-01-11T09:10:26.044Z,13.00
2023-01-11T09:14:51.683Z,11.40
2023-01-11T09:18:57.025Z,15.00
2023-01-11T09:23:24.500Z,13.70
2023-01-11T09:27:16.670Z,13.80
2023-01-11T09:31:13.280Z,16.40
2023-01-11T09:34:58.015Z,10.90
2023-01-11T09:42:21.202Z,13.10
2023-01-11T09:46:05.586Z,13.10
2023-01-11T09:50:13.509Z,12.10
2023-01-11T09:54:22.415Z,14.30
2023-01-11T09:58:49.521Z,14.30
2023-01-11T10:02:59.526Z,13.60
2023-01-11T10:07:14.471Z,12.50
2023-01-11T10:18:27.369Z,14.30
2023-01-11T10:20:05.718Z,11.60
2023-01-11T10:27:32.526Z,11.90
2023-01-11T10:31:19.472Z,12.20
2023-01-11T10:35:34.491Z,19.60
2023-01-11T10:39:46.362Z,11.90
2023-01-11T10:43:43.341Z,14.30
2023-01-11T10:47:52.567Z,14.20
2023-01-11T10:52:07.526Z,13.80
2023-01-11T10:56:42.875Z,15.10
2023-01-11T11:00:47.322Z,11.70
2023-01-11T11:05:09.079Z,12.70
2023-01-11T11:09:27.336Z,13.80
2023-01-11T11:13:15.163Z,10.00
2023-01-11T11:17:44.404Z,14.30
2023-01-11T11:29:29.456Z,11.90
2023-01-11T11:37:01.905Z,13.10
2023-01-11T11:41:18.584Z,11.60
2023-01-11T11:45:44.358Z,11.70
2023-01-11T11:49:47.427Z,9.60
2023-01-11T11:54:34.313Z,9.20
2023-01-11T11:58:51.274Z,7.70
2023-01-11T12:03:34.347Z,7.50
2023-01-11T12:07:55.492Z,10.00
2023-01-11T12:12:08.923Z,8.00
2023-01-11T12:15:55.068Z,8.20
2023-01-11T12:19:29.316Z,8.80
2023-01-11T12:23:07.206Z,8.70
2023-01-11T12:27:10.041Z,9.70
2023-01-11T12:31:10.477Z,7.70
2023-01-11T12:36:03.096Z,6.60
2023-01-11T12:40:31.262Z,8.60
2023-01-11T12:44:50.857Z,8.70
2023-01-11T12:48:34.006Z,8.00
2023-01-11T12:52:04.031Z,7.90
2023-01-11T12:59:46.999Z,8.00
2023-01-11T13:07:29.565Z,8.10
2023-01-11T13:11:36.064Z,8.30
2023-01-11T13:15:22.317Z,9.60
2023-01-11T13:19:46.303Z,8.60
2023-01-11T13:24:09.877Z,8.90
2023-01-11T13:27:44.333Z,7.80
2023-01-11T13:35:41.285Z,8.20
2023-01-11T13:39:07.442Z,8.80
2023-01-11T13:42:22.779Z,6.60
2023-01-11T13:46:09.557Z,8.60
2023-01-11T13:50:31.741Z,8.20
2023-01-11T13:54:18.305Z,8.60
2023-01-11T13:59:06.826Z,9.70
2023-01-11T14:08:23.520Z,11.60
2023-01-11T14:12:28.324Z,5.90
2023-01-11T14:15:58.229Z,9.20
2023-01-11T14:28:51.109Z,7.40
2023-01-11T14:33:31.137Z,7.00
2023-01-11T14:41:24.155Z,7.20
2023-01-11T14:50:23.963Z,3.50
2023-01-11T14:54:09.687Z,5.80
2023-01-11T15:01:59.035Z,7.10
2023-01-11T15:06:13.632Z,6.40
2023-01-11T15:10:54.435Z,9.90
2023-01-11T15:18:19.562Z,10.90
2023-01-11T15:22:04.300Z,7.90
2023-01-11T15:25:29.393Z,10.30
2023-01-11T15:29:20.791Z,15.40
2023-01-11T15:32:51.213Z,13.10
2023-01-11T15:36:17.566Z,9.00
2023-01-11T15:40:05.609Z,8.90
2023-01-11T15:43:48.853Z,8.90
2023-01-11T15:47:54.239Z,8.30
2023-01-11T15:52:06.953Z,8.80
2023-01-11T15:55:35.184Z,10.80
2023-01-11T15:59:29.091Z,12.00
2023-01-11T16:03:27.000Z,10.10
2023-01-11T16:10:57.125Z,3.90
2023-01-11T16:14:52.021Z,8.00
2023-01-11T16:18:58.538Z,10.60
2023-01-11T16:22:42.777Z,9.00
2023-01-11T16:38:28.885Z,12.70
2023-01-11T16:42:57.993Z,16.60
2023-01-11T16:47:03.936Z,12.50
2023-01-11T16:51:13.210Z,12.80
2023-01-11T16:55:09.999Z,12.30
2023-01-11T16:59:12.946Z,10.70
2023-01-11T17:03:13.964Z,13.50
2023-01-11T17:07:05.999Z,15.30
2023-01-11T17:10:59.974Z,11.80
2023-01-11T17:15:13.963Z,12.60
2023-01-11T17:19:08.056Z,8.60
2023-01-11T17:22:38.971Z,6.20
2023-01-11T17:26:55.198Z,6.50
2023-01-11T17:30:59.011Z,7.50
2023-01-11T17:35:12.036Z,6.30
2023-01-11T17:39:19.315Z,6.30
2023-01-11T17:43:37.773Z,6.70
2023-01-11T17:47:35.536Z,6.40
2023-01-11T17:51:46.926Z,7.00
2023-01-11T17:56:16.976Z,6.50
2023-01-11T18:00:12.981Z,5.20
2023-01-11T18:04:19.170Z,5.30
2023-01-11T18:08:28.050Z,7.30
2023-01-11T18:12:15.590Z,7.50
2023-01-11T18:15:45.731Z,6.60
2023-01-11T18:19:43.812Z,5.50
2023-01-11T18:23:11.921Z,9.40
2023-01-11T18:26:54.103Z,5.80
2023-01-11T18:31:05.895Z,6.90
2023-01-11T18:39:16.910Z,9.00
2023-01-11T18:50:20.963Z,4.90
2023-01-11T18:54:36.608Z,5.70
2023-01-11T18:59:03.414Z,4.10
2023-01-11T19:03:34.500Z,5.50
2023-01-11T19:08:03.475Z,4.90
2023-01-11T19:12:17.183Z,2.60
2023-01-11T19:16:51.518Z,3.90
2023-01-11T19:23:57.783Z,4.20
2023-01-11T19:28:15.908Z,8.70
2023-01-11T19:32:34.202Z,6.80
2023-01-11T19:37:00.989Z,5.40
2023-01-11T19:41:30.508Z,7.80
2023-01-11T19:45:42.683Z,5.80
2023-01-11T19:56:37.691Z,6.10
2023-01-11T20:00:51.750Z,5.70
2023-01-11T20:04:48.974Z,8.80
2023-01-11T20:08:24.978Z,8.60
2023-01-11T20:12:00.231Z,14.20
2023-01-11T20:16:07.684Z,8.70
2023-01-11T20:28:20.754Z,3.40
2023-01-11T20:33:38.019Z,5.10
2023-01-11T20:38:04.657Z,4.50
2023-01-11T20:49:56.857Z,3.40
2023-01-11T20:53:41.825Z,2.50
2023-01-11T20:57:53.805Z,4.50
2023-01-11T21:02:18.788Z,3.10
2023-01-11T21:13:40.944Z,3.40
2023-01-11T21:21:54.102Z,2.80
2023-01-11T21:28:34.473Z,5.30
2023-01-11T21:32:45.391Z,3.80
2023-01-11T21:36:52.296Z,2.30
2023-01-11T21:41:00.394Z,3.60
2023-01-11T21:45:40.101Z,1.80
2023-01-11T21:53:53.603Z,3.80
2023-01-11T21:57:59.537Z,14.40
2023-01-11T22:06:49.836Z,5.20
2023-01-11T22:11:04.602Z,5.40
2023-01-11T22:15:16.445Z,11.00
2023-01-11T22:19:23.801Z,6.10
2023-01-11T22:23:12.696Z,12.50
2023-01-11T22:27:21.547Z,6.90
2023-01-11T22:31:33.592Z,6.30
2023-01-11T22:35:42.692Z,6.80
2023-01-11T22:39:54.809Z,5.10
2023-01-11T22:44:06.708Z,7.00
2023-01-11T22:51:08.840Z,4.70
2023-01-11T22:55:43.011Z,4.90
2023-01-11T22:59:52.172Z,5.20
2023-01-11T23:04:01.167Z,3.10
2023-01-11T23:08:01.944Z,6.80
2023-01-11T23:12:11.273Z,3.20
2023-01-11T23:20:51.940Z,4.30
2023-01-11T23:24:44.276Z,2.70
2023-01-11T23:34:38.033Z,4.00
2023-01-11T23:38:50.265Z,3.00
2023-01-11T23:52:31.055Z,4.10
